sensor_id;sensor_type;location;lat;lon;timestamp;pressure;altitude;pressure_sealevel;temperature;humidity
18784;BME280;9520;50.954;6.968;2024-03-02T00:00:09;99522.81;;;12.94;49.03
18784;BME280;9520;50.954;6.968;2024-03-02T00:00:34;99488.44;;;12.74;49.00
18784;BME280;9520;50.954;6.968;2024-03-02T00:00:56;99514.69;;;12.98;48.93
18784;BME280;9520;50.954;6.968;2024-03-02T00:01:17;99513.31;;;13.10;48.67
18784;BME280;9520;50.954;6.968;2024-03-02T00:01:39;99517.28;;;13.00;48.67
18784;BME280;9520;50.954;6.968;2024-03-02T00:02:02;99514.84;;;13.16;48.56
18784;BME280;9520;50.954;6.968;2024-03-02T00:02:24;99515.31;;;13.25;48.51
18784;BME280;9520;50.954;6.968;2024-03-02T00:02:47;99520.38;;;13.10;48.54
18784;BME280;9520;50.954;6.968;2024-03-02T00:03:11;99516.44;;;13.20;48.47
18784;BME280;9520;50.954;6.968;2024-03-02T00:03:36;99516.81;;;13.31;48.24
18784;BME280;9520;50.954;6.968;2024-03-02T00:03:58;99512.19;;;13.36;48.03
18784;BME280;9520;50.954;6.968;2024-03-02T00:04:21;99518.19;;;13.39;47.92
18784;BME280;9520;50.954;6.968;2024-03-02T00:04:44;99520.47;;;13.47;47.80
18784;BME280;9520;50.954;6.968;2024-03-02T00:05:06;99513.06;;;13.55;47.67
18784;BME280;9520;50.954;6.968;2024-03-02T00:05:28;99507.47;;;13.61;47.43
18784;BME280;9520;50.954;6.968;2024-03-02T00:05:50;99522.09;;;13.51;47.46
18784;BME280;9520;50.954;6.968;2024-03-02T00:06:13;99518.91;;;13.62;47.42
18784;BME280;9520;50.954;6.968;2024-03-02T00:06:35;99525.94;;;13.63;47.29
18784;BME280;9520;50.954;6.968;2024-03-02T00:06:57;99496.41;;;13.33;47.61
18784;BME280;9520;50.954;6.968;2024-03-02T00:07:19;99515.06;;;13.50;47.72
18784;BME280;9520;50.954;6.968;2024-03-02T00:07:41;99512.97;;;13.57;47.55
18784;BME280;9520;50.954;6.968;2024-03-02T00:08:05;99517.72;;;13.69;47.35
18784;BME280;9520;50.954;6.968;2024-03-02T00:08:29;99517.00;;;13.65;47.23
18784;BME280;9520;50.954;6.968;2024-03-02T00:08:51;99517.56;;;13.72;47.16
18784;BME280;9520;50.954;6.968;2024-03-02T00:09:14;99513.00;;;13.75;47.07
18784;BME280;9520;50.954;6.968;2024-03-02T00:09:38;99508.25;;;13.63;47.05
18784;BME280;9520;50.954;6.968;2024-03-02T00:10:07;99514.34;;;13.65;46.83
18784;BME280;9520;50.954;6.968;2024-03-02T00:10:36;99521.22;;;13.69;47.12
18784;BME280;9520;50.954;6.968;2024-03-02T00:11:01;99518.69;;;13.48;47.22
18784;BME280;9520;50.954;6.968;2024-03-02T00:11:24;99519.88;;;13.61;47.20
18784;BME280;9520;50.954;6.968;2024-03-02T00:11:47;99510.56;;;13.71;47.04
18784;BME280;9520;50.954;6.968;2024-03-02T00:12:11;99513.00;;;13.75;46.91
18784;BME280;9520;50.954;6.968;2024-03-02T00:12:37;99514.56;;;13.79;46.91
18784;BME280;9520;50.954;6.968;2024-03-02T00:12:59;99515.00;;;13.89;46.66
18784;BME280;9520;50.954;6.968;2024-03-02T00:13:21;99508.34;;;13.80;46.89
18784;BME280;9520;50.954;6.968;2024-03-02T00:13:45;99515.06;;;13.88;46.85
18784;BME280;9520;50.954;6.968;2024-03-02T00:14:08;99512.06;;;13.95;46.72
18784;BME280;9520;50.954;6.968;2024-03-02T00:14:30;99518.34;;;13.93;46.55
18784;BME280;9520;50.954;6.968;2024-03-02T00:14:51;99512.34;;;13.89;46.49
18784;BME280;9520;50.954;6.968;2024-03-02T00:15:31;99513.97;;;13.92;46.58
18784;BME280;9520;50.954;6.968;2024-03-02T00:15:59;99511.13;;;13.77;46.77
18784;BME280;9520;50.954;6.968;2024-03-02T00:16:22;99515.06;;;13.69;46.83
18784;BME280;9520;50.954;6.968;2024-03-02T00:16:45;99521.50;;;13.82;46.87
18784;BME280;9520;50.954;6.968;2024-03-02T00:17:15;99513.25;;;13.88;46.57
18784;BME280;9520;50.954;6.968;2024-03-02T00:17:40;99523.53;;;13.96;46.53
18784;BME280;9520;50.954;6.968;2024-03-02T00:18:02;99525.00;;;13.82;46.52
18784;BME280;9520;50.954;6.968;2024-03-02T00:18:25;99521.28;;;13.87;46.50
18784;BME280;9520;50.954;6.968;2024-03-02T00:18:48;99523.28;;;13.81;46.71
18784;BME280;9520;50.954;6.968;2024-03-02T00:19:11;99518.84;;;13.82;46.64
18784;BME280;9520;50.954;6.968;2024-03-02T00:19:33;99516.78;;;13.89;46.63
18784;BME280;9520;50.954;6.968;2024-03-02T00:19:54;99529.59;;;13.98;46.48
18784;BME280;9520;50.954;6.968;2024-03-02T00:20:18;99526.31;;;13.93;46.52
18784;BME280;9520;50.954;6.968;2024-03-02T00:20:42;99519.16;;;13.95;46.47
18784;BME280;9520;50.954;6.968;2024-03-02T00:21:06;99517.13;;;14.00;46.30
18784;BME280;9520;50.954;6.968;2024-03-02T00:21:31;99513.72;;;13.79;46.54
18784;BME280;9520;50.954;6.968;2024-03-02T00:21:53;99511.75;;;13.82;46.66
18784;BME280;9520;50.954;6.968;2024-03-02T00:22:15;99513.44;;;13.85;46.52
18784;BME280;9520;50.954;6.968;2024-03-02T00:22:37;99506.75;;;13.76;46.77
18784;BME280;9520;50.954;6.968;2024-03-02T00:23:03;99506.47;;;13.82;46.49
18784;BME280;9520;50.954;6.968;2024-03-02T00:23:27;99517.13;;;14.00;46.33
18784;BME280;9520;50.954;6.968;2024-03-02T00:23:50;99509.59;;;14.09;46.19
18784;BME280;9520;50.954;6.968;2024-03-02T00:24:19;99511.38;;;14.09;46.10
18784;BME280;9520;50.954;6.968;2024-03-02T00:24:43;99515.34;;;14.00;46.31
18784;BME280;9520;50.954;6.968;2024-03-02T00:25:05;99520.44;;;14.05;46.22
18784;BME280;9520;50.954;6.968;2024-03-02T00:25:27;99514.25;;;14.04;46.18
18784;BME280;9520;50.954;6.968;2024-03-02T00:25:49;99506.31;;;14.04;46.19
18784;BME280;9520;50.954;6.968;2024-03-02T00:26:13;99513.75;;;14.15;45.99
18784;BME280;9520;50.954;6.968;2024-03-02T00:26:37;99508.25;;;14.01;46.07
18784;BME280;9520;50.954;6.968;2024-03-02T00:26:59;99508.16;;;14.02;46.15
18784;BME280;9520;50.954;6.968;2024-03-02T00:27:21;99511.44;;;14.07;45.99
18784;BME280;9520;50.954;6.968;2024-03-02T00:27:47;99507.69;;;13.94;46.18
18784;BME280;9520;50.954;6.968;2024-03-02T00:28:20;99509.19;;;14.00;46.17
18784;BME280;9520;50.954;6.968;2024-03-02T00:28:43;99502.38;;;13.94;46.23
18784;BME280;9520;50.954;6.968;2024-03-02T00:29:06;99509.53;;;13.92;46.42
18784;BME280;9520;50.954;6.968;2024-03-02T00:29:29;99501.22;;;14.00;46.15
18784;BME280;9520;50.954;6.968;2024-03-02T00:29:51;99509.53;;;13.92;46.35
18784;BME280;9520;50.954;6.968;2024-03-02T00:30:58;99496.84;;;13.99;46.10
18784;BME280;9520;50.954;6.968;2024-03-02T00:31:21;99501.91;;;13.86;46.48
18784;BME280;9520;50.954;6.968;2024-03-02T00:31:43;99487.78;;;13.86;46.58
18784;BME280;9520;50.954;6.968;2024-03-02T00:32:10;99493.00;;;13.68;46.96
18784;BME280;9520;50.954;6.968;2024-03-02T00:32:35;99495.84;;;13.82;46.67
18784;BME280;9520;50.954;6.968;2024-03-02T00:32:56;99499.78;;;13.93;46.63
18784;BME280;9520;50.954;6.968;2024-03-02T00:33:19;99477.81;;;13.91;46.43
18784;BME280;9520;50.954;6.968;2024-03-02T00:33:43;99495.28;;;13.95;46.22
18784;BME280;9520;50.954;6.968;2024-03-02T00:34:06;99507.47;;;13.99;46.32
18784;BME280;9520;50.954;6.968;2024-03-02T00:34:28;99497.13;;;13.93;46.44
18784;BME280;9520;50.954;6.968;2024-03-02T00:34:50;99498.66;;;13.79;46.40
18784;BME280;9520;50.954;6.968;2024-03-02T00:35:12;99499.59;;;13.60;46.92
18784;BME280;9520;50.954;6.968;2024-03-02T00:35:33;99493.88;;;13.50;47.12
18784;BME280;9520;50.954;6.968;2024-03-02T00:35:56;99494.03;;;13.66;46.90
18784;BME280;9520;50.954;6.968;2024-03-02T00:36:22;99496.34;;;13.72;46.88
18784;BME280;9520;50.954;6.968;2024-03-02T00:36:47;99501.88;;;13.67;46.82
18784;BME280;9520;50.954;6.968;2024-03-02T00:37:10;99505.09;;;13.36;47.21
18784;BME280;9520;50.954;6.968;2024-03-02T00:37:34;99483.75;;;13.21;47.69
18784;BME280;9520;50.954;6.968;2024-03-02T00:37:55;99499.19;;;13.11;47.98
18784;BME280;9520;50.954;6.968;2024-03-02T00:38:17;99496.44;;;13.13;48.09
18784;BME280;9520;50.954;6.968;2024-03-02T00:38:46;99502.09;;;13.44;47.65
18784;BME280;9520;50.954;6.968;2024-03-02T00:39:12;99497.81;;;13.60;47.19
18784;BME280;9520;50.954;6.968;2024-03-02T00:39:34;99499.09;;;13.70;47.00
18784;BME280;9520;50.954;6.968;2024-03-02T00:39:58;99492.78;;;13.73;46.89
18784;BME280;9520;50.954;6.968;2024-03-02T00:40:20;99499.16;;;13.69;46.95
18784;BME280;9520;50.954;6.968;2024-03-02T00:40:42;99500.63;;;13.76;46.94
18784;BME280;9520;50.954;6.968;2024-03-02T00:41:05;99491.47;;;13.81;46.70
18784;BME280;9520;50.954;6.968;2024-03-02T00:41:30;99499.97;;;13.71;46.85
18784;BME280;9520;50.954;6.968;2024-03-02T00:41:53;99504.03;;;13.59;47.09
18784;BME280;9520;50.954;6.968;2024-03-02T00:42:15;99495.22;;;13.59;46.86
18784;BME280;9520;50.954;6.968;2024-03-02T00:42:36;99508.84;;;13.51;47.28
18784;BME280;9520;50.954;6.968;2024-03-02T00:42:58;99510.47;;;13.54;47.12
18784;BME280;9520;50.954;6.968;2024-03-02T00:43:43;99504.19;;;13.56;46.95
18784;BME280;9520;50.954;6.968;2024-03-02T00:44:12;99507.59;;;13.58;46.92
18784;BME280;9520;50.954;6.968;2024-03-02T00:44:34;99510.25;;;13.58;47.08
18784;BME280;9520;50.954;6.968;2024-03-02T00:44:57;99502.53;;;13.72;46.77
18784;BME280;9520;50.954;6.968;2024-03-02T00:45:19;99500.38;;;13.80;46.51
18784;BME280;9520;50.954;6.968;2024-03-02T00:45:41;99505.25;;;13.90;46.38
18784;BME280;9520;50.954;6.968;2024-03-02T00:46:03;99506.47;;;13.82;46.60
18784;BME280;9520;50.954;6.968;2024-03-02T00:46:27;99500.50;;;13.77;46.59
18784;BME280;9520;50.954;6.968;2024-03-02T00:46:49;99495.22;;;13.77;46.61
18784;BME280;9520;50.954;6.968;2024-03-02T00:47:11;99497.66;;;13.82;46.55
18784;BME280;9520;50.954;6.968;2024-03-02T00:47:37;99484.47;;;13.62;46.79
18784;BME280;9520;50.954;6.968;2024-03-02T00:47:59;99498.72;;;13.59;46.79
18784;BME280;9520;50.954;6.968;2024-03-02T00:48:21;99503.31;;;13.56;47.04
18784;BME280;9520;50.954;6.968;2024-03-02T00:48:48;99498.66;;;13.61;46.86
18784;BME280;9520;50.954;6.968;2024-03-02T00:49:18;99502.09;;;13.44;47.20
18784;BME280;9520;50.954;6.968;2024-03-02T00:49:42;99497.00;;;13.58;47.05
18784;BME280;9520;50.954;6.968;2024-03-02T00:50:05;99492.00;;;13.52;47.03
18784;BME280;9520;50.954;6.968;2024-03-02T00:50:40;99489.47;;;13.30;47.54
18784;BME280;9520;50.954;6.968;2024-03-02T00:51:03;99490.75;;;13.22;47.68
18784;BME280;9520;50.954;6.968;2024-03-02T00:51:26;99493.63;;;13.36;47.46
18784;BME280;9520;50.954;6.968;2024-03-02T00:51:50;99496.94;;;13.41;47.50
18784;BME280;9520;50.954;6.968;2024-03-02T00:52:12;99501.00;;;13.48;47.41
18784;BME280;9520;50.954;6.968;2024-03-02T00:52:34;99498.38;;;13.48;47.42
18784;BME280;9520;50.954;6.968;2024-03-02T00:52:56;99494.13;;;13.44;47.46
18784;BME280;9520;50.954;6.968;2024-03-02T00:53:22;99504.91;;;13.60;47.21
18784;BME280;9520;50.954;6.968;2024-03-02T00:53:45;99495.50;;;13.53;47.14
18784;BME280;9520;50.954;6.968;2024-03-02T00:54:09;99504.09;;;13.58;47.04
18784;BME280;9520;50.954;6.968;2024-03-02T00:54:31;99501.22;;;13.44;47.23
18784;BME280;9520;50.954;6.968;2024-03-02T00:54:57;99506.25;;;13.50;47.22
18784;BME280;9520;50.954;6.968;2024-03-02T00:55:20;99498.38;;;13.48;47.20
18784;BME280;9520;50.954;6.968;2024-03-02T00:55:42;99492.84;;;13.53;47.23
18784;BME280;9520;50.954;6.968;2024-03-02T00:56:09;99487.84;;;13.65;46.96
18784;BME280;9520;50.954;6.968;2024-03-02T00:56:32;99491.34;;;13.84;46.54
18784;BME280;9520;50.954;6.968;2024-03-02T00:56:54;99497.00;;;13.96;46.29
18784;BME280;9520;50.954;6.968;2024-03-02T00:57:17;99497.66;;;14.01;46.20
18784;BME280;9520;50.954;6.968;2024-03-02T00:57:41;99503.69;;;13.86;46.23
18784;BME280;9520;50.954;6.968;2024-03-02T00:58:03;99501.59;;;13.73;46.41
18784;BME280;9520;50.954;6.968;2024-03-02T00:58:24;99495.44;;;13.73;46.50
18784;BME280;9520;50.954;6.968;2024-03-02T00:58:46;99498.09;;;13.73;46.63
18784;BME280;9520;50.954;6.968;2024-03-02T00:59:08;99505.66;;;13.62;46.79
18784;BME280;9520;50.954;6.968;2024-03-02T00:59:31;99505.13;;;13.55;46.94
18784;BME280;9520;50.954;6.968;2024-03-02T00:59:54;99511.75;;;13.64;46.91
18784;BME280;9520;50.954;6.968;2024-03-02T01:00:16;99505.16;;;13.54;47.00
18784;BME280;9520;50.954;6.968;2024-03-02T01:00:39;99507.47;;;13.61;47.09
18784;BME280;9520;50.954;6.968;2024-03-02T01:01:01;99509.69;;;13.70;46.88
18784;BME280;9520;50.954;6.968;2024-03-02T01:01:23;99498.44;;;13.84;46.58
18784;BME280;9520;50.954;6.968;2024-03-02T01:01:45;99500.38;;;13.80;46.47
18784;BME280;9520;50.954;6.968;2024-03-02T01:02:07;99505.09;;;13.93;46.42
18784;BME280;9520;50.954;6.968;2024-03-02T01:02:29;99501.28;;;13.98;46.28
18784;BME280;9520;50.954;6.968;2024-03-02T01:02:51;99500.50;;;13.96;46.21
18784;BME280;9520;50.954;6.968;2024-03-02T01:03:12;99505.75;;;13.98;46.08
18784;BME280;9520;50.954;6.968;2024-03-02T01:04:17;99506.25;;;13.50;47.03
18784;BME280;9520;50.954;6.968;2024-03-02T01:04:39;99490.25;;;13.32;47.15
18784;BME280;9520;50.954;6.968;2024-03-02T01:05:01;99491.13;;;13.33;47.21
18784;BME280;9520;50.954;6.968;2024-03-02T01:05:23;99495.16;;;13.42;47.17
18784;BME280;9520;50.954;6.968;2024-03-02T01:05:45;99499.50;;;13.43;47.26
18784;BME280;9520;50.954;6.968;2024-03-02T01:06:06;99496.28;;;13.36;47.34
18784;BME280;9520;50.954;6.968;2024-03-02T01:06:28;99478.19;;;13.07;48.03
18784;BME280;9520;50.954;6.968;2024-03-02T01:06:51;99503.50;;;13.32;47.84
18784;BME280;9520;50.954;6.968;2024-03-02T01:07:13;99501.50;;;13.37;47.44
18784;BME280;9520;50.954;6.968;2024-03-02T01:07:34;99494.94;;;13.46;47.28
18784;BME280;9520;50.954;6.968;2024-03-02T01:07:56;99507.81;;;13.54;46.97
18784;BME280;9520;50.954;6.968;2024-03-02T01:08:18;99501.81;;;13.50;47.06
18784;BME280;9520;50.954;6.968;2024-03-02T01:08:39;99498.47;;;13.47;47.04
18784;BME280;9520;50.954;6.968;2024-03-02T01:09:02;99495.22;;;13.59;47.01
18784;BME280;9520;50.954;6.968;2024-03-02T01:09:24;99510.84;;;13.65;46.71
18784;BME280;9520;50.954;6.968;2024-03-02T01:09:46;99506.56;;;13.42;47.27
18784;BME280;9520;50.954;6.968;2024-03-02T01:10:08;99498.50;;;13.45;47.25
18784;BME280;9520;50.954;6.968;2024-03-02T01:10:32;99498.72;;;13.40;47.07
18784;BME280;9520;50.954;6.968;2024-03-02T01:10:54;99505.59;;;13.45;47.13
18784;BME280;9520;50.954;6.968;2024-03-02T01:11:17;99501.53;;;13.56;46.95
18784;BME280;9520;50.954;6.968;2024-03-02T01:11:39;99483.97;;;13.54;46.91
18784;BME280;9520;50.954;6.968;2024-03-02T01:12:01;99495.06;;;13.62;46.96
18784;BME280;9520;50.954;6.968;2024-03-02T01:12:23;99481.06;;;13.41;47.07
18784;BME280;9520;50.954;6.968;2024-03-02T01:12:44;99500.56;;;13.38;47.12
18784;BME280;9520;50.954;6.968;2024-03-02T01:13:07;99501.69;;;13.33;47.33
18784;BME280;9520;50.954;6.968;2024-03-02T01:13:29;99478.78;;;13.13;47.60
18784;BME280;9520;50.954;6.968;2024-03-02T01:13:51;99486.81;;;13.12;47.72
18784;BME280;9520;50.954;6.968;2024-03-02T01:14:13;99495.19;;;13.21;47.75
18784;BME280;9520;50.954;6.968;2024-03-02T01:14:35;99491.84;;;13.36;47.41
18784;BME280;9520;50.954;6.968;2024-03-02T01:14:58;99504.41;;;13.52;47.07
18784;BME280;9520;50.954;6.968;2024-03-02T01:15:19;99491.16;;;13.52;47.06
18784;BME280;9520;50.954;6.968;2024-03-02T01:15:42;99493.16;;;13.65;46.76
18784;BME280;9520;50.954;6.968;2024-03-02T01:16:04;99489.78;;;13.62;46.81
18784;BME280;9520;50.954;6.968;2024-03-02T01:16:26;99496.13;;;13.76;46.64
18784;BME280;9520;50.954;6.968;2024-03-02T01:16:47;99478.63;;;13.74;46.38
18784;BME280;9520;50.954;6.968;2024-03-02T01:17:10;99470.72;;;13.72;46.37
18784;BME280;9520;50.954;6.968;2024-03-02T01:17:32;99491.63;;;13.78;46.14
18784;BME280;9520;50.954;6.968;2024-03-02T01:17:54;99496.00;;;13.79;46.44
18784;BME280;9520;50.954;6.968;2024-03-02T01:18:16;99488.00;;;13.81;46.36
18784;BME280;9520;50.954;6.968;2024-03-02T01:18:38;99493.50;;;13.95;46.18
18784;BME280;9520;50.954;6.968;2024-03-02T01:19:00;99492.47;;;13.98;46.06
18784;BME280;9520;50.954;6.968;2024-03-02T01:19:23;99486.19;;;14.00;45.88
18784;BME280;9520;50.954;6.968;2024-03-02T01:19:45;99488.31;;;13.92;45.97
18784;BME280;9520;50.954;6.968;2024-03-02T01:20:08;99492.28;;;13.83;46.16
18784;BME280;9520;50.954;6.968;2024-03-02T01:20:29;99491.69;;;13.77;46.24
18784;BME280;9520;50.954;6.968;2024-03-02T01:20:51;99485.22;;;13.65;46.44
18784;BME280;9520;50.954;6.968;2024-03-02T01:21:14;99489.13;;;13.57;46.63
18784;BME280;9520;50.954;6.968;2024-03-02T01:21:37;99496.03;;;13.61;46.57
18784;BME280;9520;50.954;6.968;2024-03-02T01:21:59;99489.66;;;13.65;46.66
18784;BME280;9520;50.954;6.968;2024-03-02T01:22:21;99493.16;;;13.65;46.58
18784;BME280;9520;50.954;6.968;2024-03-02T01:22:46;99485.22;;;13.65;46.59
18784;BME280;9520;50.954;6.968;2024-03-02T01:23:08;99488.63;;;13.67;46.50
18784;BME280;9520;50.954;6.968;2024-03-02T01:23:30;99485.63;;;13.75;46.43
18784;BME280;9520;50.954;6.968;2024-03-02T01:23:53;99490.22;;;13.90;46.03
18784;BME280;9520;50.954;6.968;2024-03-02T01:24:14;99497.66;;;14.01;45.95
18784;BME280;9520;50.954;6.968;2024-03-02T01:24:36;99491.16;;;14.06;45.85
18784;BME280;9520;50.954;6.968;2024-03-02T01:24:58;99498.94;;;14.11;45.72
18784;BME280;9520;50.954;6.968;2024-03-02T01:25:20;99486.28;;;14.16;45.53
18784;BME280;9520;50.954;6.968;2024-03-02T01:25:43;99493.41;;;13.97;45.85
18784;BME280;9520;50.954;6.968;2024-03-02T01:26:04;99493.72;;;13.72;45.95
18784;BME280;9520;50.954;6.968;2024-03-02T01:26:28;99476.47;;;13.63;46.04
18784;BME280;9520;50.954;6.968;2024-03-02T01:26:49;99478.91;;;13.49;46.26
18784;BME280;9520;50.954;6.968;2024-03-02T01:27:12;99494.50;;;13.55;46.60
18784;BME280;9520;50.954;6.968;2024-03-02T01:27:33;99492.94;;;13.70;46.25
18784;BME280;9520;50.954;6.968;2024-03-02T01:27:55;99465.16;;;13.60;46.16
18784;BME280;9520;50.954;6.968;2024-03-02T01:28:18;99451.81;;;13.43;46.53
18784;BME280;9520;50.954;6.968;2024-03-02T01:28:42;99489.38;;;13.71;46.34
18784;BME280;9520;50.954;6.968;2024-03-02T01:29:03;99473.16;;;13.58;46.23
18784;BME280;9520;50.954;6.968;2024-03-02T01:29:25;99494.34;;;13.58;46.61
18784;BME280;9520;50.954;6.968;2024-03-02T01:29:47;99482.34;;;13.51;46.61
18784;BME280;9520;50.954;6.968;2024-03-02T01:30:10;99484.69;;;13.38;46.75
18784;BME280;9520;50.954;6.968;2024-03-02T01:30:32;99488.25;;;13.37;47.02
18784;BME280;9520;50.954;6.968;2024-03-02T01:30:55;99490.34;;;13.31;46.97
18784;BME280;9520;50.954;6.968;2024-03-02T01:31:17;99496.13;;;13.20;47.17
18784;BME280;9520;50.954;6.968;2024-03-02T01:31:39;99482.81;;;13.02;47.57
18784;BME280;9520;50.954;6.968;2024-03-02T01:32:04;99482.81;;;13.02;47.82
18784;BME280;9520;50.954;6.968;2024-03-02T01:32:25;99488.81;;;13.05;47.88
18784;BME280;9520;50.954;6.968;2024-03-02T01:32:48;99486.25;;;13.24;47.52
18784;BME280;9520;50.954;6.968;2024-03-02T01:33:10;99469.66;;;13.20;47.26
18784;BME280;9520;50.954;6.968;2024-03-02T01:33:32;99489.91;;;13.40;47.11
18784;BME280;9520;50.954;6.968;2024-03-02T01:33:54;99487.97;;;13.44;46.89
18784;BME280;9520;50.954;6.968;2024-03-02T01:34:17;99487.06;;;13.63;46.65
18784;BME280;9520;50.954;6.968;2024-03-02T01:34:39;99495.38;;;13.56;46.74
18784;BME280;9520;50.954;6.968;2024-03-02T01:35:00;99490.50;;;13.47;46.82
18784;BME280;9520;50.954;6.968;2024-03-02T01:35:22;99486.25;;;13.24;47.33
18784;BME280;9520;50.954;6.968;2024-03-02T01:35:44;99490.88;;;13.19;47.57
18784;BME280;9520;50.954;6.968;2024-03-02T01:36:07;99491.03;;;13.16;47.38
18784;BME280;9520;50.954;6.968;2024-03-02T01:36:30;99492.63;;;13.38;47.27
18784;BME280;9520;50.954;6.968;2024-03-02T01:36:52;99489.91;;;13.40;46.99
18784;BME280;9520;50.954;6.968;2024-03-02T01:37:13;99484.75;;;13.37;47.08
18784;BME280;9520;50.954;6.968;2024-03-02T01:37:35;99485.28;;;13.45;46.82
18784;BME280;9520;50.954;6.968;2024-03-02T01:37:57;99493.94;;;13.49;46.88
18784;BME280;9520;50.954;6.968;2024-03-02T01:38:20;99480.41;;;13.55;46.83
18784;BME280;9520;50.954;6.968;2024-03-02T01:38:42;99485.22;;;13.65;46.67
18784;BME280;9520;50.954;6.968;2024-03-02T01:39:04;99486.94;;;13.66;46.50
18784;BME280;9520;50.954;6.968;2024-03-02T01:39:30;99490.56;;;13.64;46.49
18784;BME280;9520;50.954;6.968;2024-03-02T01:39:52;99493.06;;;13.48;46.65
18784;BME280;9520;50.954;6.968;2024-03-02T01:40:14;99475.25;;;13.52;46.72
18784;BME280;9520;50.954;6.968;2024-03-02T01:40:37;99494.63;;;13.52;46.73
18784;BME280;9520;50.954;6.968;2024-03-02T01:41:01;99487.50;;;13.54;46.81
18784;BME280;9520;50.954;6.968;2024-03-02T01:41:23;99491.06;;;13.53;46.65
18784;BME280;9520;50.954;6.968;2024-03-02T01:41:46;99483.31;;;13.67;46.51
18784;BME280;9520;50.954;6.968;2024-03-02T01:43:00;99491.88;;;13.55;46.40
18784;BME280;9520;50.954;6.968;2024-03-02T01:43:21;99478.03;;;13.49;46.47
18784;BME280;9520;50.954;6.968;2024-03-02T01:43:44;99487.00;;;13.46;46.61
18784;BME280;9520;50.954;6.968;2024-03-02T01:44:06;99481.19;;;13.57;46.64
18784;BME280;9520;50.954;6.968;2024-03-02T01:44:28;99487.34;;;13.38;46.93
18784;BME280;9520;50.954;6.968;2024-03-02T01:44:50;99478.53;;;13.38;47.05
18784;BME280;9520;50.954;6.968;2024-03-02T01:45:12;99482.69;;;13.44;46.94
18784;BME280;9520;50.954;6.968;2024-03-02T01:45:35;99498.66;;;13.61;46.68
18784;BME280;9520;50.954;6.968;2024-03-02T01:45:59;99480.91;;;13.63;46.57
18784;BME280;9520;50.954;6.968;2024-03-02T01:46:20;99479.16;;;13.62;46.64
18784;BME280;9520;50.954;6.968;2024-03-02T01:46:42;99484.13;;;13.51;46.83
18784;BME280;9520;50.954;6.968;2024-03-02T01:47:04;99476.47;;;13.45;46.87
18784;BME280;9520;50.954;6.968;2024-03-02T01:47:25;99474.19;;;13.56;46.70
18784;BME280;9520;50.954;6.968;2024-03-02T01:47:47;99475.06;;;13.56;46.73
18784;BME280;9520;50.954;6.968;2024-03-02T01:48:10;99480.56;;;13.70;46.35
18784;BME280;9520;50.954;6.968;2024-03-02T01:48:32;99487.66;;;13.70;46.31
18784;BME280;9520;50.954;6.968;2024-03-02T01:48:53;99483.69;;;13.78;46.26
18784;BME280;9520;50.954;6.968;2024-03-02T01:49:15;99475.97;;;13.74;46.30
18784;BME280;9520;50.954;6.968;2024-03-02T01:49:37;99477.75;;;13.73;46.13
18784;BME280;9520;50.954;6.968;2024-03-02T01:50:00;99480.78;;;13.66;46.49
18784;BME280;9520;50.954;6.968;2024-03-02T01:50:27;99475.81;;;13.58;46.34
18784;BME280;9520;50.954;6.968;2024-03-02T01:50:50;99483.50;;;13.46;46.72
18784;BME280;9520;50.954;6.968;2024-03-02T01:51:12;99474.41;;;13.51;46.92
18784;BME280;9520;50.954;6.968;2024-03-02T01:51:34;99473.44;;;13.52;46.88
18784;BME280;9520;50.954;6.968;2024-03-02T01:51:56;99475.81;;;13.39;47.09
18784;BME280;9520;50.954;6.968;2024-03-02T01:52:18;99465.88;;;13.45;46.96
18784;BME280;9520;50.954;6.968;2024-03-02T01:52:40;99486.47;;;13.38;46.96
18784;BME280;9520;50.954;6.968;2024-03-02T01:53:02;99480.81;;;13.27;47.35
18784;BME280;9520;50.954;6.968;2024-03-02T01:53:24;99472.72;;;13.30;47.19
18784;BME280;9520;50.954;6.968;2024-03-02T01:53:46;99472.47;;;13.36;47.08
18784;BME280;9520;50.954;6.968;2024-03-02T01:54:08;99471.59;;;13.54;46.85
18784;BME280;9520;50.954;6.968;2024-03-02T01:54:30;99465.38;;;13.55;46.60
18784;BME280;9520;50.954;6.968;2024-03-02T01:54:52;99432.25;;;13.47;46.61
18784;BME280;9520;50.954;6.968;2024-03-02T01:55:14;99472.44;;;13.73;46.47
18784;BME280;9520;50.954;6.968;2024-03-02T01:55:36;99432.94;;;13.50;46.32
18784;BME280;9520;50.954;6.968;2024-03-02T01:55:58;99474.59;;;13.84;46.11
18784;BME280;9520;50.954;6.968;2024-03-02T01:56:21;99478.84;;;13.69;46.11
18784;BME280;9520;50.954;6.968;2024-03-02T01:56:44;99468.94;;;13.54;46.45
18784;BME280;9520;50.954;6.968;2024-03-02T01:57:06;99470.31;;;13.63;46.30
18784;BME280;9520;50.954;6.968;2024-03-02T01:57:28;99442.09;;;13.24;46.78
18784;BME280;9520;50.954;6.968;2024-03-02T01:57:50;99437.38;;;13.31;46.85
18784;BME280;9520;50.954;6.968;2024-03-02T01:58:13;99468.16;;;13.52;46.74
18784;BME280;9520;50.954;6.968;2024-03-02T01:58:36;99483.00;;;13.56;46.63
18784;BME280;9520;50.954;6.968;2024-03-02T01:58:59;99480.19;;;13.59;46.34
18784;BME280;9520;50.954;6.968;2024-03-02T01:59:20;99480.03;;;13.44;46.67
18784;BME280;9520;50.954;6.968;2024-03-02T01:59:42;99480.69;;;13.49;46.87
18784;BME280;9520;50.954;6.968;2024-03-02T02:00:05;99482.19;;;13.35;46.96
18784;BME280;9520;50.954;6.968;2024-03-02T02:00:32;99484.16;;;13.12;47.39
18784;BME280;9520;50.954;6.968;2024-03-02T02:00:54;99480.03;;;13.25;47.38
18784;BME280;9520;50.954;6.968;2024-03-02T02:01:16;99479.38;;;13.38;47.18
18784;BME280;9520;50.954;6.968;2024-03-02T02:01:38;99483.06;;;13.36;47.19
18784;BME280;9520;50.954;6.968;2024-03-02T02:02:00;99474.16;;;13.37;47.35
18784;BME280;9520;50.954;6.968;2024-03-02T02:02:22;99476.00;;;13.16;47.67
18784;BME280;9520;50.954;6.968;2024-03-02T02:02:44;99473.00;;;13.24;47.78
18784;BME280;9520;50.954;6.968;2024-03-02T02:03:06;99477.75;;;13.36;47.49
18784;BME280;9520;50.954;6.968;2024-03-02T02:03:28;99484.34;;;13.46;47.23
18784;BME280;9520;50.954;6.968;2024-03-02T02:03:50;99483.06;;;13.36;47.14
18784;BME280;9520;50.954;6.968;2024-03-02T02:04:12;99475.25;;;13.13;47.63
18784;BME280;9520;50.954;6.968;2024-03-02T02:04:35;99466.94;;;13.02;47.94
18784;BME280;9520;50.954;6.968;2024-03-02T02:04:56;99475.34;;;13.11;47.89
18784;BME280;9520;50.954;6.968;2024-03-02T02:05:19;99468.50;;;13.26;47.66